Time;durP1;ratioP1;P1;durP2;ratioP2;P2;SDS_P1;SDS_P2;PMS_P1;PMS_P2;Temp;Humidity;BMP_temperature;BMP_pressure;BME280_temperature;BME280_humidity;BME280_pressure;Samples;Min_cycle;Max_cycle;Signal;HPM_P1;HPM_P2
2023/04/27 00:01:33;;;;;;;12.30;4.73;;;5.70;99.90;;;;;;5109752;28;20197;-80
2023/04/27 00:04:00;;;;;;;7.80;4.50;;;5.70;99.90;;;;;;5098921;28;20197;-80
2023/04/27 00:06:27;;;;;;;8.70;4.23;;;5.70;99.90;;;;;;5114261;28;20205;-79
2023/04/27 00:08:55;;;;;;;9.50;4.53;;;5.80;99.90;;;;;;5093922;28;20300;-79
2023/04/27 00:11:22;;;;;;;11.73;4.97;;;5.70;99.90;;;;;;5094271;28;20580;-79
2023/04/27 00:13:49;;;;;;;9.97;4.10;;;5.60;99.90;;;;;;5113627;28;20200;-80
2023/04/27 00:16:15;;;;;;;7.63;4.30;;;5.80;99.90;;;;;;5115440;28;20298;-81
2023/04/27 00:18:42;;;;;;;8.03;4.10;;;5.80;99.90;;;;;;5116584;28;20235;-78
2023/04/27 00:21:09;;;;;;;9.93;4.50;;;5.80;99.90;;;;;;5118943;28;20201;-78
2023/04/27 00:23:36;;;;;;;8.20;4.40;;;5.80;99.90;;;;;;5116331;28;20197;-78
2023/04/27 00:26:04;;;;;;;9.33;5.00;;;5.80;99.90;;;;;;5117734;28;20205;-77
2023/04/27 00:28:31;;;;;;;10.87;4.80;;;5.80;99.90;;;;;;5116863;28;20232;-78
2023/04/27 00:30:57;;;;;;;8.43;4.43;;;5.70;99.90;;;;;;5116330;28;20207;-77
2023/04/27 00:33:24;;;;;;;12.47;4.50;;;5.70;99.90;;;;;;5104840;28;20202;-78
2023/04/27 00:35:51;;;;;;;8.13;4.60;;;5.70;99.90;;;;;;5111443;28;20216;-77
2023/04/27 00:38:18;;;;;;;10.20;5.60;;;5.70;99.90;;;;;;5099516;28;20221;-79
2023/04/27 00:40:44;;;;;;;7.47;4.43;;;5.70;99.90;;;;;;5095645;28;20198;-78
2023/04/27 00:43:13;;;;;;;6.60;3.97;;;5.80;99.90;;;;;;5112130;28;20205;-77
2023/04/27 00:45:42;;;;;;;8.47;4.83;;;5.70;99.90;;;;;;5116253;28;20227;-78
2023/04/27 00:48:10;;;;;;;9.07;4.37;;;5.80;99.90;;;;;;5108420;28;20700;-77
2023/04/27 00:50:37;;;;;;;8.63;4.20;;;5.80;99.90;;;;;;5098877;28;20239;-78
2023/04/27 00:53:05;;;;;;;8.93;4.40;;;5.80;99.90;;;;;;5113399;28;20205;-79
2023/04/27 00:55:35;;;;;;;10.20;4.63;;;5.60;99.90;;;;;;5117601;28;20262;-78
2023/04/27 00:58:02;;;;;;;8.37;4.63;;;5.60;99.90;;;;;;5110103;28;20236;-79
2023/04/27 01:00:30;;;;;;;8.70;4.10;;;5.50;99.90;;;;;;5101309;28;20217;-78
2023/04/27 01:02:57;;;;;;;8.07;4.83;;;5.40;99.90;;;;;;5098210;28;20198;-79
2023/04/27 01:05:25;;;;;;;8.03;4.33;;;5.50;99.90;;;;;;5097903;28;20198;-78
2023/04/27 01:07:52;;;;;;;10.10;4.57;;;5.60;99.90;;;;;;5097603;28;20201;-78
2023/04/27 01:10:18;;;;;;;8.50;4.47;;;5.60;99.90;;;;;;5100551;28;20236;-78
2023/04/27 01:12:45;;;;;;;9.83;4.53;;;5.60;99.90;;;;;;5118173;28;20193;-78
2023/04/27 01:15:12;;;;;;;10.60;4.57;;;5.70;99.90;;;;;;5114637;28;20307;-77
2023/04/27 01:17:41;;;;;;;11.00;5.10;;;5.50;99.90;;;;;;5099735;28;20215;-77
2023/04/27 01:20:09;;;;;;;7.47;4.43;;;5.60;99.90;;;;;;5114000;28;20226;-76
2023/04/27 01:22:37;;;;;;;8.53;4.43;;;5.60;99.90;;;;;;5095596;28;20198;-78
2023/04/27 01:25:06;;;;;;;8.87;4.73;;;5.60;99.90;;;;;;5114470;28;20190;-79
2023/04/27 01:27:33;;;;;;;9.20;5.03;;;5.50;99.90;;;;;;5116639;28;20201;-79
2023/04/27 01:30:03;;;;;;;8.93;4.47;;;5.60;99.90;;;;;;5112402;28;20221;-78
2023/04/27 01:32:30;;;;;;;8.87;4.70;;;5.60;99.90;;;;;;5115385;28;20211;-79
2023/04/27 01:34:57;;;;;;;8.80;4.10;;;5.50;99.90;;;;;;5096331;28;20217;-78
2023/04/27 01:37:23;;;;;;;8.37;4.23;;;5.60;99.90;;;;;;5097832;28;20212;-77
2023/04/27 01:39:50;;;;;;;10.20;4.97;;;5.60;99.90;;;;;;5103694;28;20224;-79
2023/04/27 01:42:18;;;;;;;10.70;4.67;;;5.60;99.90;;;;;;5097413;28;20208;-79
2023/04/27 01:44:45;;;;;;;10.20;4.73;;;5.50;99.90;;;;;;5109364;28;20197;-79
2023/04/27 01:47:12;;;;;;;7.60;4.80;;;5.40;99.90;;;;;;5117565;28;20288;-78
2023/04/27 01:49:38;;;;;;;10.30;5.30;;;5.40;99.90;;;;;;5101615;28;20225;-79
2023/04/27 01:52:05;;;;;;;13.23;4.87;;;5.40;99.90;;;;;;5105817;28;20205;-79
2023/04/27 01:54:32;;;;;;;11.43;4.67;;;5.30;99.90;;;;;;5107928;28;20200;-79
2023/04/27 01:57:00;;;;;;;9.57;5.33;;;5.30;99.90;;;;;;5103208;28;20242;-79
2023/04/27 01:59:28;;;;;;;13.50;5.33;;;5.30;99.90;;;;;;5100545;28;20636;-79
2023/04/27 02:01:55;;;;;;;10.03;4.70;;;5.30;99.90;;;;;;5111168;28;20554;-79
2023/04/27 02:04:22;;;;;;;10.40;5.27;;;5.40;99.90;;;;;;5107081;28;20271;-79
2023/04/27 02:06:49;;;;;;;9.87;4.63;;;5.30;99.90;;;;;;5114088;28;20612;-79
2023/04/27 02:09:16;;;;;;;8.27;4.60;;;5.30;99.90;;;;;;5111346;28;20580;-79
2023/04/27 02:11:42;;;;;;;11.73;4.70;;;5.30;99.90;;;;;;5096201;28;20221;-78
2023/04/27 02:14:09;;;;;;;8.67;4.23;;;5.20;99.90;;;;;;5098295;28;20215;-77
2023/04/27 02:16:37;;;;;;;9.17;4.93;;;5.30;99.90;;;;;;5109290;28;20218;-78
2023/04/27 02:19:04;;;;;;;9.50;4.20;;;5.20;99.90;;;;;;5106407;28;20591;-78
2023/04/27 02:21:31;;;;;;;9.27;4.70;;;5.30;99.90;;;;;;5113802;28;20212;-77
2023/04/27 02:23:58;;;;;;;10.63;4.80;;;5.20;99.90;;;;;;5099611;28;20274;-78
2023/04/27 02:26:28;;;;;;;11.77;4.60;;;5.20;99.90;;;;;;5099353;28;20185;-78
2023/04/27 02:28:55;;;;;;;10.73;4.70;;;5.30;99.90;;;;;;5118689;28;20240;-79
2023/04/27 02:31:22;;;;;;;9.97;4.67;;;5.20;99.90;;;;;;5119177;28;20197;-77
2023/04/27 02:33:50;;;;;;;11.13;5.23;;;5.20;99.90;;;;;;5106077;28;20218;-79
2023/04/27 02:36:17;;;;;;;9.93;5.07;;;5.00;99.90;;;;;;5100539;28;20241;-79
2023/04/27 02:38:44;;;;;;;7.87;4.07;;;5.00;99.90;;;;;;5118831;28;20220;-78
2023/04/27 02:41:11;;;;;;;9.47;4.43;;;5.00;99.90;;;;;;5112255;28;20209;-78
2023/04/27 02:43:37;;;;;;;7.93;4.33;;;5.00;99.90;;;;;;5108918;28;20274;-78
2023/04/27 02:46:04;;;;;;;9.00;4.90;;;4.90;99.90;;;;;;5112586;28;20205;-77
2023/04/27 02:48:31;;;;;;;7.80;4.33;;;4.90;99.90;;;;;;5112932;28;20208;-77
2023/04/27 02:51:02;;;;;;;10.27;4.60;;;4.90;99.90;;;;;;5098769;28;20201;-78
2023/04/27 02:53:29;;;;;;;12.33;4.53;;;4.90;99.90;;;;;;5119109;28;20205;-80
2023/04/27 02:55:57;;;;;;;8.90;4.93;;;4.80;99.90;;;;;;5117844;28;20217;-77
2023/04/27 02:58:24;;;;;;;10.90;3.93;;;4.80;99.90;;;;;;5112089;28;20209;-78
2023/04/27 03:00:54;;;;;;;9.83;4.40;;;4.70;99.90;;;;;;5107197;28;20201;-77
2023/04/27 03:03:21;;;;;;;12.10;6.57;;;4.60;99.90;;;;;;5117229;28;20298;-78
2023/04/27 03:05:47;;;;;;;9.10;5.10;;;4.60;99.90;;;;;;5114833;28;20185;-78
2023/04/27 03:08:16;;;;;;;10.63;4.97;;;4.50;99.90;;;;;;5107729;28;20193;-78
2023/04/27 03:10:42;;;;;;;9.00;4.67;;;4.40;99.90;;;;;;5098039;28;20203;-77
2023/04/27 03:13:09;;;;;;;14.97;5.23;;;4.40;99.90;;;;;;5098010;28;20208;-85
2023/04/27 03:15:36;;;;;;;9.47;4.77;;;4.40;99.90;;;;;;5112019;28;20585;-80
2023/04/27 03:18:03;;;;;;;8.13;4.47;;;4.30;99.90;;;;;;5108811;28;20189;-80
2023/04/27 03:20:30;;;;;;;9.70;4.67;;;4.30;99.90;;;;;;5115685;28;20231;-81
2023/04/27 03:22:57;;;;;;;11.33;4.93;;;4.30;99.90;;;;;;5103039;28;20208;-79
2023/04/27 03:25:25;;;;;;;12.57;4.87;;;4.20;99.90;;;;;;5098013;28;20261;-81
2023/04/27 03:27:52;;;;;;;11.33;4.40;;;4.20;99.90;;;;;;5097496;28;20212;-81
2023/04/27 03:30:19;;;;;;;12.10;5.13;;;4.20;99.90;;;;;;5097227;28;20218;-80
2023/04/27 03:32:46;;;;;;;14.57;4.40;;;4.20;99.90;;;;;;5096552;28;20244;-78
2023/04/27 03:35:13;;;;;;;10.47;5.43;;;4.20;99.90;;;;;;5096783;28;20212;-81
2023/04/27 03:37:40;;;;;;;9.50;4.87;;;4.20;99.90;;;;;;5097418;28;20612;-81
2023/04/27 03:40:08;;;;;;;10.43;4.80;;;4.20;99.90;;;;;;5096660;28;20228;-80
2023/04/27 03:42:36;;;;;;;7.63;4.43;;;4.20;99.90;;;;;;5097350;28;20210;-81
2023/04/27 03:45:03;;;;;;;7.37;4.43;;;4.20;99.90;;;;;;5097173;28;20212;-80
2023/04/27 03:47:30;;;;;;;9.43;4.37;;;4.20;99.90;;;;;;5097178;28;20565;-80
2023/04/27 03:49:57;;;;;;;9.63;4.77;;;4.10;99.90;;;;;;5096858;28;20635;-80
2023/04/27 03:52:24;;;;;;;9.37;4.37;;;4.10;99.90;;;;;;5097166;28;20211;-80
2023/04/27 03:54:51;;;;;;;10.30;4.97;;;4.10;99.90;;;;;;5097065;28;20206;-80
2023/04/27 03:57:18;;;;;;;10.53;4.87;;;4.00;99.90;;;;;;5096588;28;20226;-81
2023/04/27 03:59:46;;;;;;;11.97;4.90;;;3.90;99.90;;;;;;5095382;28;20278;-81
2023/04/27 04:02:13;;;;;;;9.83;4.67;;;3.90;99.90;;;;;;5095472;28;20213;-81
2023/04/27 04:04:40;;;;;;;13.67;4.37;;;3.80;99.90;;;;;;5095287;28;20204;-80
2023/04/27 04:07:06;;;;;;;9.27;4.67;;;3.70;99.90;;;;;;5096989;28;20201;-81
2023/04/27 04:09:33;;;;;;;7.93;4.10;;;3.60;99.90;;;;;;5096564;28;20240;-80
2023/04/27 04:12:00;;;;;;;8.00;4.33;;;3.80;99.90;;;;;;5097283;28;20206;-79
2023/04/27 04:14:27;;;;;;;9.90;4.67;;;3.80;99.90;;;;;;5097211;28;20211;-79
2023/04/27 04:16:55;;;;;;;9.80;4.57;;;4.00;99.90;;;;;;5096610;28;20742;-80
2023/04/27 04:19:22;;;;;;;8.47;4.00;;;3.80;99.90;;;;;;5096527;28;20221;-80
2023/04/27 04:21:49;;;;;;;13.03;6.23;;;3.90;99.90;;;;;;5096758;28;20255;-80
2023/04/27 04:24:16;;;;;;;6.77;4.23;;;3.70;99.90;;;;;;5096613;28;20207;-79
2023/04/27 04:26:43;;;;;;;7.47;4.10;;;3.60;99.90;;;;;;5096987;28;20202;-78
2023/04/27 04:29:09;;;;;;;8.63;4.57;;;3.50;99.90;;;;;;5095830;28;20256;-80
2023/04/27 04:31:36;;;;;;;11.10;4.20;;;3.40;99.90;;;;;;5096337;28;20204;-80
2023/04/27 04:34:05;;;;;;;9.73;3.87;;;3.40;99.90;;;;;;5095281;28;20259;-80
2023/04/27 04:36:31;;;;;;;10.17;4.70;;;3.30;99.90;;;;;;5095839;28;20217;-80
2023/04/27 04:38:59;;;;;;;10.30;4.73;;;3.50;99.90;;;;;;5096188;28;20218;-80
2023/04/27 04:41:26;;;;;;;7.50;4.07;;;4.40;99.90;;;;;;5095577;28;20699;-80
2023/04/27 04:43:53;;;;;;;7.67;3.73;;;4.80;99.90;;;;;;5109879;28;20293;-80
2023/04/27 04:46:21;;;;;;;8.70;3.97;;;4.70;99.90;;;;;;5112208;28;20214;-81
2023/04/27 04:48:47;;;;;;;9.00;4.33;;;4.70;99.90;;;;;;5104171;28;20699;-81
2023/04/27 04:51:16;;;;;;;8.00;3.77;;;5.30;99.90;;;;;;5102554;28;20293;-81
2023/04/27 04:53:43;;;;;;;6.87;3.93;;;5.50;99.90;;;;;;5095742;28;20269;-80
2023/04/27 04:56:10;;;;;;;12.53;4.03;;;6.30;99.90;;;;;;5106578;28;20212;-80
2023/04/27 04:58:37;;;;;;;5.53;3.43;;;6.80;99.90;;;;;;5101033;28;20312;-79
2023/04/27 05:01:04;;;;;;;8.07;3.80;;;7.10;99.90;;;;;;5095397;28;20213;-81
2023/04/27 05:03:31;;;;;;;9.93;4.40;;;7.60;99.90;;;;;;5096566;28;20205;-80
2023/04/27 05:05:58;;;;;;;7.47;3.97;;;7.80;99.90;;;;;;5096677;28;20214;-79
2023/04/27 05:08:26;;;;;;;7.90;3.93;;;8.00;99.90;;;;;;5097218;28;20201;-81
2023/04/27 05:10:54;;;;;;;6.33;3.90;;;8.80;99.90;;;;;;5096664;28;20193;-81
2023/04/27 05:13:21;;;;;;;8.97;3.63;;;8.60;99.90;;;;;;5097467;28;20689;-80
2023/04/27 05:15:49;;;;;;;5.90;3.50;;;8.40;99.90;;;;;;5096695;28;20343;-81
2023/04/27 05:18:15;;;;;;;7.60;3.30;;;8.50;99.90;;;;;;5094679;28;20288;-82
2023/04/27 05:20:42;;;;;;;7.80;3.73;;;8.10;99.90;;;;;;5096993;28;20632;-80
2023/04/27 05:23:09;;;;;;;6.83;4.20;;;8.30;99.90;;;;;;5098097;28;20667;-79
2023/04/27 05:25:40;;;;;;;7.47;3.17;;;8.10;99.90;;;;;;5095713;28;20207;-79
2023/04/27 05:28:08;;;;;;;6.87;3.10;;;8.10;99.90;;;;;;5096273;28;20209;-79
2023/04/27 05:30:35;;;;;;;7.00;3.07;;;8.90;99.90;;;;;;5096541;28;20690;-77
2023/04/27 05:33:02;;;;;;;6.13;3.43;;;9.70;99.90;;;;;;5097076;28;20206;-80
2023/04/27 05:35:28;;;;;;;6.60;3.30;;;9.90;99.90;;;;;;5108497;28;20201;-80
2023/04/27 05:37:55;;;;;;;7.80;3.27;;;8.90;99.90;;;;;;5108111;28;20217;-80
2023/04/27 05:40:22;;;;;;;6.20;3.10;;;8.40;99.90;;;;;;5116499;28;20221;-81
2023/04/27 05:42:50;;;;;;;6.03;3.17;;;8.40;99.90;;;;;;5115946;28;20212;-76
2023/04/27 05:45:17;;;;;;;13.40;3.80;;;8.30;99.90;;;;;;5115823;28;20215;-80
2023/04/27 05:47:44;;;;;;;7.97;3.33;;;8.40;99.90;;;;;;5116033;28;20197;-80
2023/04/27 05:50:11;;;;;;;7.93;3.47;;;8.40;99.90;;;;;;5117223;28;20217;-80
2023/04/27 05:52:38;;;;;;;6.27;3.83;;;7.70;99.90;;;;;;5117379;28;20228;-78
2023/04/27 05:55:06;;;;;;;8.07;3.70;;;7.70;99.90;;;;;;5119223;28;20216;-79
2023/04/27 05:57:33;;;;;;;7.80;3.53;;;8.70;99.90;;;;;;5121834;28;20579;-79
2023/04/27 06:00:06;;;;;;;7.80;3.50;;;8.20;99.90;;;;;;5121607;28;20590;-78
2023/04/27 06:02:33;;;;;;;7.87;3.90;;;7.80;99.90;;;;;;5121222;28;20182;-79
2023/04/27 06:04:59;;;;;;;6.33;3.73;;;8.80;99.90;;;;;;5120479;28;20209;-80
2023/04/27 06:07:26;;;;;;;8.50;4.43;;;9.90;99.90;;;;;;5120045;28;20212;-77
2023/04/27 06:09:53;;;;;;;3.80;2.87;;;9.30;99.90;;;;;;5119857;28;20642;-80
2023/04/27 06:12:20;;;;;;;8.00;3.13;;;8.60;99.90;;;;;;5119524;28;20231;-81
2023/04/27 06:14:47;;;;;;;6.40;3.20;;;8.10;99.90;;;;;;5120722;28;20580;-81
2023/04/27 06:17:15;;;;;;;6.30;3.30;;;8.20;99.90;;;;;;5117896;28;20235;-80
2023/04/27 06:19:42;;;;;;;6.47;3.27;;;7.40;99.90;;;;;;5118004;28;20285;-80
2023/04/27 06:22:10;;;;;;;5.77;3.30;;;7.50;99.90;;;;;;5111362;28;20198;-82
2023/04/27 06:24:37;;;;;;;7.07;3.23;;;7.60;99.90;;;;;;5117595;28;20215;-81
2023/04/27 06:27:04;;;;;;;8.87;3.50;;;7.80;99.90;;;;;;5118515;28;20224;-80
2023/04/27 06:29:31;;;;;;;6.03;3.50;;;8.50;99.90;;;;;;5110972;28;20581;-80
2023/04/27 06:31:58;;;;;;;8.77;3.60;;;8.30;99.90;;;;;;5096861;28;20659;-81
2023/04/27 06:34:26;;;;;;;6.17;3.60;;;8.20;99.90;;;;;;5096346;28;20296;-81
2023/04/27 06:36:53;;;;;;;8.37;3.40;;;9.00;99.90;;;;;;5097449;28;20214;-81
2023/04/27 06:39:20;;;;;;;9.47;3.07;;;10.30;99.90;;;;;;5096717;28;20297;-81
2023/04/27 06:41:47;;;;;;;6.90;3.17;;;10.50;99.90;;;;;;5097170;28;20201;-82
2023/04/27 06:44:14;;;;;;;9.20;3.17;;;11.40;99.90;;;;;;5096632;28;20296;-81
2023/04/27 06:46:40;;;;;;;5.00;3.37;;;10.80;99.90;;;;;;5097692;28;20204;-81
2023/04/27 06:49:07;;;;;;;7.33;3.30;;;10.90;99.90;;;;;;5097169;28;20678;-81
2023/04/27 06:51:35;;;;;;;4.73;2.97;;;10.60;78.50;;;;;;5097361;28;20262;-81
2023/04/27 06:54:03;;;;;;;4.13;3.07;;;10.30;90.50;;;;;;5098810;28;20617;-81
2023/04/27 06:56:29;;;;;;;6.70;2.90;;;10.00;1.00;;;;;;5098974;28;20206;-81
2023/04/27 06:58:56;;;;;;;3.63;2.77;;;10.40;1.00;;;;;;5105411;28;20320;-81
2023/04/27 07:01:23;;;;;;;6.30;2.80;;;10.50;1.00;;;;;;5118649;28;20203;-82
2023/04/27 07:03:50;;;;;;;5.70;2.80;;;11.20;1.00;;;;;;5109939;28;20626;-81
2023/04/27 07:06:17;;;;;;;5.77;2.83;;;11.10;1.00;;;;;;5115028;28;20193;-81
2023/04/27 07:08:45;;;;;;;4.80;2.70;;;11.90;1.00;;;;;;5097164;28;20227;-81
2023/04/27 07:11:13;;;;;;;6.97;2.77;;;10.80;1.00;;;;;;5107582;28;20228;-79
2023/04/27 07:13:40;;;;;;;6.03;3.17;;;10.50;1.00;;;;;;5104101;28;20205;-79
2023/04/27 07:16:07;;;;;;;4.60;2.87;;;10.40;1.00;;;;;;5103351;28;20204;-80
2023/04/27 07:18:34;;;;;;;6.63;3.30;;;10.30;1.00;;;;;;5102064;28;20273;-80
2023/04/27 07:21:01;;;;;;;3.70;2.93;;;10.00;1.00;;;;;;5104048;28;20237;-80
2023/04/27 07:23:28;;;;;;;8.63;2.70;;;9.60;99.90;;;;;;5103183;28;20244;-80
2023/04/27 07:25:57;;;;;;;4.87;3.00;;;9.80;99.90;;;;;;5104115;28;20240;-79
2023/04/27 07:28:24;;;;;;;8.83;2.80;;;10.60;99.90;;;;;;5103704;28;20670;-80
2023/04/27 07:30:51;;;;;;;7.23;2.43;;;11.40;99.90;;;;;;5100066;28;20197;-82
2023/04/27 07:33:18;;;;;;;2.00;1.80;;;10.30;1.00;;;;;;5099994;28;20566;-82
2023/04/27 07:35:45;;;;;;;4.80;2.50;;;9.30;1.00;;;;;;5117322;28;20232;-81
2023/04/27 07:38:12;;;;;;;2.23;2.03;;;9.50;1.00;;;;;;5116722;28;20308;-81
2023/04/27 07:40:39;;;;;;;2.63;2.00;;;9.60;1.00;;;;;;5117274;28;20240;-81
2023/04/27 07:43:08;;;;;;;2.80;2.10;;;9.50;1.00;;;;;;5118191;28;20205;-81
2023/04/27 07:45:37;;;;;;;7.03;2.40;;;9.70;1.00;;;;;;5117593;27;20200;-81
2023/04/27 07:48:05;;;;;;;5.43;2.40;;;9.80;1.00;;;;;;5116661;28;20224;-81
2023/04/27 07:50:32;;;;;;;4.60;2.60;;;9.60;1.00;;;;;;5112478;28;20240;-81
2023/04/27 07:52:59;;;;;;;5.97;2.20;;;9.50;1.00;;;;;;5097405;28;20201;-81
2023/04/27 07:55:27;;;;;;;4.40;2.10;;;9.00;99.90;;;;;;5096828;28;20457;-81
2023/04/27 07:57:55;;;;;;;4.60;2.37;;;8.70;99.90;;;;;;5111603;28;20209;-81
2023/04/27 08:00:25;;;;;;;5.43;2.27;;;8.70;1.00;;;;;;5116526;28;20227;-81
2023/04/27 08:02:54;;;;;;;2.97;2.40;;;9.00;99.90;;;;;;5114333;28;20209;-82
2023/04/27 08:05:21;;;;;;;5.13;2.20;;;9.70;99.90;;;;;;5116295;28;20280;-81
2023/04/27 08:07:48;;;;;;;3.87;2.30;;;9.90;80.10;;;;;;5117452;28;20224;-81
2023/04/27 08:10:15;;;;;;;3.13;2.70;;;9.80;1.00;;;;;;5117190;28;20256;-81
2023/04/27 08:12:42;;;;;;;3.60;2.43;;;9.70;1.00;;;;;;5117327;28;20200;-81
2023/04/27 08:15:11;;;;;;;5.23;2.67;;;9.60;99.90;;;;;;5116786;28;20548;-81
2023/04/27 08:17:40;;;;;;;5.53;2.20;;;9.50;99.90;;;;;;5116598;28;20625;-81
2023/04/27 08:20:10;;;;;;;5.53;2.80;;;9.80;1.00;;;;;;5116961;28;20224;-81
2023/04/27 08:22:37;;;;;;;4.73;2.20;;;10.30;1.00;;;;;;5117405;28;20211;-81
2023/04/27 08:25:04;;;;;;;2.30;1.93;;;10.60;1.00;;;;;;5116860;28;20211;-80
2023/04/27 08:27:32;;;;;;;5.47;2.37;;;10.30;99.90;;;;;;5116560;28;20193;-81
2023/04/27 08:30:00;;;;;;;3.60;1.80;;;9.70;99.90;;;;;;5115823;28;20229;-81
2023/04/27 08:32:27;;;;;;;3.27;2.03;;;9.80;99.90;;;;;;5115746;28;20242;-81
2023/04/27 08:34:55;;;;;;;2.97;2.17;;;10.00;99.90;;;;;;5115635;28;20295;-81
2023/04/27 08:37:22;;;;;;;6.33;2.30;;;10.10;99.90;;;;;;5116499;28;20217;-81
2023/04/27 08:39:49;;;;;;;5.07;2.27;;;10.20;99.90;;;;;;5116669;28;20293;-81
2023/04/27 08:42:16;;;;;;;4.17;2.43;;;10.80;99.90;;;;;;5116959;28;20209;-81
2023/04/27 08:44:44;;;;;;;2.33;1.80;;;11.00;99.90;;;;;;5116917;28;20585;-81
2023/04/27 08:47:11;;;;;;;4.43;2.10;;;10.50;1.00;;;;;;5117134;28;20552;-82
2023/04/27 08:49:40;;;;;;;3.00;2.30;;;11.00;94.90;;;;;;5116783;28;20284;-81
2023/04/27 08:52:12;;;;;;;2.30;2.10;;;11.30;9.30;;;;;;5116201;28;20207;-81
2023/04/27 08:54:39;;;;;;;4.47;1.87;;;11.50;5.40;;;;;;5118390;28;20190;-81
2023/04/27 08:57:11;;;;;;;2.93;1.80;;;11.40;1.00;;;;;;5116229;28;20209;-81
2023/04/27 08:59:38;;;;;;;6.03;2.20;;;10.40;1.00;;;;;;5116717;28;20747;-82
2023/04/27 09:02:06;;;;;;;4.27;2.00;;;10.20;1.00;;;;;;5116373;28;20197;-81
2023/04/27 09:04:39;;;;;;;4.97;2.00;;;10.10;1.00;;;;;;5115636;28;20200;-81
2023/04/27 09:07:15;;;;;;;2.77;1.60;;;10.30;1.00;;;;;;5116330;28;20643;-81
2023/04/27 09:09:42;;;;;;;3.93;1.90;;;10.20;1.00;;;;;;5115949;28;20686;-81
2023/04/27 09:12:17;;;;;;;2.73;2.00;;;10.80;1.00;;;;;;5116096;28;20205;-81
2023/04/27 09:14:55;;;;;;;5.27;1.93;;;11.30;1.00;;;;;;5115968;28;20204;-82
2023/04/27 09:17:26;;;;;;;3.53;2.10;;;11.60;1.00;;;;;;5115997;28;20211;-80
2023/04/27 09:19:53;;;;;;;4.50;2.00;;;12.00;1.00;;;;;;5115855;28;20224;-81
2023/04/27 09:22:21;;;;;;;3.20;2.30;;;12.10;1.00;;;;;;5116090;28;20204;-81
2023/04/27 09:24:52;;;;;;;3.27;2.03;;;11.90;1.00;;;;;;5116377;28;20203;-82
2023/04/27 09:27:20;;;;;;;5.23;2.10;;;12.20;1.00;;;;;;5115883;28;20236;-81
2023/04/27 09:29:46;;;;;;;3.87;2.13;;;12.00;1.00;;;;;;5117418;28;20231;-81
2023/04/27 09:32:16;;;;;;;4.03;2.20;;;11.40;99.90;;;;;;5120700;28;20228;-82
2023/04/27 09:34:43;;;;;;;5.07;2.20;;;11.10;99.90;;;;;;5120250;28;20241;-81
2023/04/27 09:37:10;;;;;;;4.73;2.20;;;11.50;99.90;;;;;;5120564;28;20205;-81
2023/04/27 09:39:39;;;;;;;3.60;2.10;;;11.80;99.90;;;;;;5118635;28;20224;-81
2023/04/27 09:42:07;;;;;;;5.10;2.43;;;11.70;99.90;;;;;;5118690;28;20201;-81
2023/04/27 09:44:34;;;;;;;3.97;2.00;;;11.30;99.90;;;;;;5118318;28;20240;-81
2023/04/27 09:47:01;;;;;;;5.40;2.20;;;11.10;99.90;;;;;;5118405;28;20204;-81
2023/04/27 09:49:28;;;;;;;3.20;2.40;;;11.20;99.90;;;;;;5118399;28;20221;-81
2023/04/27 09:51:57;;;;;;;6.50;2.70;;;11.20;38.40;;;;;;5118414;28;20237;-81
2023/04/27 09:54:27;;;;;;;3.37;2.30;;;11.20;36.40;;;;;;5118930;28;20561;-81
2023/04/27 09:57:07;;;;;;;2.87;2.43;;;11.10;1.00;;;;;;5117887;28;20221;-81
2023/04/27 10:00:01;;;;;;;5.53;2.67;;;11.80;56.90;;;;;;5118361;28;20228;-81
2023/04/27 10:02:36;;;;;;;3.87;2.13;;;12.70;99.90;;;;;;5118094;28;20199;-81
2023/04/27 10:05:30;;;;;;;3.57;2.10;;;13.10;99.90;;;;;;5118038;28;20189;-82
2023/04/27 10:07:57;;;;;;;3.93;2.50;;;13.10;15.50;;;;;;5119843;28;20306;-81
2023/04/27 10:10:24;;;;;;;2.87;2.03;;;12.30;1.00;;;;;;5118975;28;20627;-81
2023/04/27 10:13:01;;;;;;;2.57;2.10;;;12.60;1.00;;;;;;5119455;28;20204;-81
2023/04/27 10:15:29;;;;;;;4.53;2.80;;;13.30;1.00;;;;;;5118601;28;20205;-81
2023/04/27 10:17:57;;;;;;;3.00;2.70;;;13.20;1.00;;;;;;5119506;28;20262;-82
2023/04/27 10:20:31;;;;;;;2.63;2.20;;;13.60;1.00;;;;;;5119139;28;20294;-81
2023/04/27 10:22:59;;;;;;;5.60;2.47;;;13.50;1.00;;;;;;5119123;28;20690;-82
2023/04/27 10:25:28;;;;;;;4.10;2.57;;;13.70;1.00;;;;;;5118037;28;20205;-80
2023/04/27 10:27:57;;;;;;;2.73;2.27;;;14.00;1.00;;;;;;5118136;28;20197;-81
2023/04/27 10:30:27;;;;;;;2.63;1.93;;;13.30;1.00;;;;;;5117363;28;20231;-79
2023/04/27 10:32:55;;;;;;;4.20;2.43;;;12.70;1.00;;;;;;5117764;28;20683;-79
2023/04/27 10:35:32;;;;;;;2.57;2.23;;;12.80;1.00;;;;;;5118208;28;20204;-79
2023/04/27 10:38:07;;;;;;;4.27;2.80;;;12.80;1.00;;;;;;5117985;28;20225;-79
2023/04/27 10:40:34;;;;;;;3.67;2.30;;;12.60;1.00;;;;;;5115918;28;20220;-80
2023/04/27 10:43:08;;;;;;;4.00;2.30;;;13.40;1.00;;;;;;5110442;28;20633;-80
2023/04/27 10:45:36;;;;;;;2.47;2.00;;;13.80;1.00;;;;;;5108207;28;20309;-80
2023/04/27 10:48:03;;;;;;;3.70;2.70;;;13.70;1.00;;;;;;5113055;28;20201;-78
2023/04/27 10:50:30;;;;;;;3.00;2.70;;;13.60;1.00;;;;;;5116477;28;20213;-79
2023/04/27 10:53:01;;;;;;;5.43;2.33;;;13.00;1.00;;;;;;5106972;28;20711;-79
2023/04/27 10:55:28;;;;;;;4.67;2.33;;;12.80;99.90;;;;;;5108850;28;20671;-80
2023/04/27 10:57:56;;;;;;;3.23;2.33;;;12.90;99.90;;;;;;5111550;28;20217;-79
2023/04/27 11:00:25;;;;;;;4.50;2.47;;;13.30;99.90;;;;;;5112116;28;20235;-79
2023/04/27 11:02:55;;;;;;;2.47;2.28;;;14.00;99.90;;;;;;5108411;28;20326;-81
2023/04/27 11:05:24;;;;;;;2.80;2.30;;;14.60;1.00;;;;;;5113635;28;20201;-80
2023/04/27 11:07:51;;;;;;;5.67;2.70;;;14.80;99.90;;;;;;5116863;28;20235;-81
2023/04/27 11:10:19;;;;;;;4.60;2.37;;;14.00;99.90;;;;;;5099845;28;20252;-79
2023/04/27 11:12:46;;;;;;;3.05;2.53;;;14.20;99.90;;;;;;5096194;28;20574;-79
2023/04/27 11:15:13;;;;;;;3.43;2.50;;;14.80;99.90;;;;;;5096168;28;20213;-80
2023/04/27 11:17:41;;;;;;;3.60;2.58;;;14.40;99.90;;;;;;5095556;28;20236;-80
2023/04/27 11:20:10;;;;;;;2.77;1.70;;;13.90;99.90;;;;;;5095539;28;20286;-80
2023/04/27 11:22:47;;;;;;;2.75;2.08;;;14.50;99.90;;;;;;5095660;28;20212;-80
2023/04/27 11:25:14;;;;;;;2.57;2.23;;;14.90;99.90;;;;;;5098456;28;20216;-80
2023/04/27 11:27:41;;;;;;;2.13;1.92;;;15.30;99.90;;;;;;5105981;28;20208;-80
2023/04/27 11:30:20;;;;;;;5.00;2.22;;;15.50;99.90;;;;;;5095306;28;20253;-80
2023/04/27 11:32:46;;;;;;;3.55;1.88;;;15.50;99.90;;;;;;5097733;28;20612;-80
2023/04/27 11:35:15;;;;;;;2.10;2.00;;;15.00;51.10;;;;;;5115315;28;20201;-80
2023/04/27 11:37:42;;;;;;;2.88;1.80;;;15.10;22.80;;;;;;5105031;28;20213;-79
2023/04/27 11:40:10;;;;;;;2.45;2.20;;;15.20;1.00;;;;;;5098775;28;20232;-80
2023/04/27 11:42:42;;;;;;;3.70;2.25;;;15.80;25.50;;;;;;5098823;28;20206;-80
2023/04/27 11:45:12;;;;;;;2.55;2.05;;;15.70;1.00;;;;;;5106777;28;20200;-82
2023/04/27 11:47:41;;;;;;;2.60;2.38;;;15.70;1.00;;;;;;5117062;28;20208;-82
2023/04/27 11:50:08;;;;;;;3.70;2.83;;;15.20;1.00;;;;;;5108374;28;20746;-82
2023/04/27 11:52:38;;;;;;;3.08;2.63;;;15.40;1.00;;;;;;5100364;28;20646;-82
2023/04/27 11:55:07;;;;;;;3.85;2.53;;;15.90;1.00;;;;;;5110426;28;20570;-82
2023/04/27 11:57:35;;;;;;;4.43;2.45;;;15.20;1.00;;;;;;5103255;28;20200;-82
2023/04/27 12:00:09;;;;;;;3.05;2.03;;;15.20;1.00;;;;;;5101365;28;20228;-81
2023/04/27 12:02:36;;;;;;;3.25;2.30;;;15.20;1.00;;;;;;5097267;28;20213;-81
2023/04/27 12:05:04;;;;;;;2.92;2.20;;;15.20;1.00;;;;;;5104172;28;20217;-82
2023/04/27 12:07:33;;;;;;;2.65;2.38;;;15.20;1.00;;;;;;5118232;28;20607;-82
2023/04/27 12:10:01;;;;;;;2.85;2.50;;;15.60;1.00;;;;;;5111997;28;20695;-82
2023/04/27 12:12:28;;;;;;;4.53;2.55;;;15.80;1.00;;;;;;5097208;28;20228;-79
2023/04/27 12:14:54;;;;;;;4.00;2.42;;;13.90;1.00;;;;;;5098828;28;20192;-81
2023/04/27 12:17:22;;;;;;;5.00;2.83;;;13.80;99.90;;;;;;5097558;28;20220;-80
2023/04/27 12:19:48;;;;;;;4.50;2.90;;;13.30;99.90;;;;;;5096790;28;20263;-80
2023/04/27 12:22:15;;;;;;;4.50;2.90;;;13.20;99.90;;;;;;5112674;28;20204;-80
2023/04/27 12:24:42;;;;;;;3.90;3.00;;;13.10;99.90;;;;;;5116655;28;20685;-80
2023/04/27 12:27:13;;;;;;;3.93;2.93;;;13.20;99.90;;;;;;5109108;28;20210;-80
2023/04/27 12:29:41;;;;;;;3.83;2.50;;;13.90;99.90;;;;;;5117649;28;20653;-81
2023/04/27 12:32:08;;;;;;;3.80;2.73;;;13.70;99.90;;;;;;5110199;28;20205;-80
2023/04/27 12:34:35;;;;;;;3.58;2.97;;;14.30;99.90;;;;;;5117179;28;20204;-81
2023/04/27 12:37:02;;;;;;;4.05;2.67;;;15.00;99.90;;;;;;5117475;28;20205;-79
2023/04/27 12:39:29;;;;;;;3.37;2.73;;;13.60;99.90;;;;;;5096679;28;20221;-81
2023/04/27 12:41:57;;;;;;;3.90;2.90;;;13.40;99.90;;;;;;5112422;28;20204;-80
2023/04/27 12:44:25;;;;;;;6.47;3.17;;;13.00;99.90;;;;;;5099334;28;20251;-79
2023/04/27 12:46:52;;;;;;;4.27;2.80;;;13.70;99.90;;;;;;5096421;28;20208;-80
2023/04/27 12:49:19;;;;;;;4.47;2.90;;;13.70;99.90;;;;;;5103009;28;20224;-80
2023/04/27 12:51:46;;;;;;;4.50;3.10;;;13.50;99.90;;;;;;5116582;28;20213;-81
2023/04/27 12:54:13;;;;;;;3.50;2.97;;;13.40;99.90;;;;;;5103937;28;20209;-81
2023/04/27 12:56:41;;;;;;;4.70;3.17;;;13.20;40.90;;;;;;5099677;28;20236;-81